Time;durP1;ratioP1;P1;durP2;ratioP2;P2;SDS_P1;SDS_P2;PMS_P1;PMS_P2;Temp;Humidity;BMP_temperature;BMP_pressure;BME280_temperature;BME280_humidity;BME280_pressure;Samples;Min_cycle;Max_cycle;Signal;HPM_P1;HPM_P2
2022/04/15 00:00:13;;;;;;;0.50;0.50;;;2.40;80.40;;;;;;5012896;28;20029;-69
2022/04/15 00:02:39;;;;;;;0.40;0.40;;;2.30;80.30;;;;;;5012502;28;20038;-69
2022/04/15 00:05:34;;;;;;;0.90;0.50;;;2.40;80.50;;;;;;5012792;28;20038;-69
2022/04/15 00:07:51;;;;;;;1.88;0.52;;;2.40;80.50;;;;;;5012774;28;20232;-69
2022/04/15 00:10:17;;;;;;;0.50;0.50;;;2.30;80.40;;;;;;5011504;28;20481;-69
2022/04/15 00:12:43;;;;;;;0.60;0.60;;;2.30;80.80;;;;;;5013059;28;20041;-69
2022/04/15 00:15:09;;;;;;;0.40;0.40;;;2.30;80.90;;;;;;5012631;28;20033;-69
2022/04/15 00:17:34;;;;;;;0.50;0.50;;;2.40;80.90;;;;;;5012896;28;20044;-69
2022/04/15 00:20:00;;;;;;;0.50;0.50;;;2.40;80.60;;;;;;5012684;28;20024;-69
2022/04/15 00:22:26;;;;;;;0.50;0.50;;;2.40;80.90;;;;;;5012717;28;20081;-69
2022/04/15 00:24:52;;;;;;;1.27;0.60;;;2.40;80.50;;;;;;5013036;28;20045;-69
2022/04/15 00:27:17;;;;;;;2.97;0.40;;;2.40;80.80;;;;;;5012490;28;20473;-69
2022/04/15 00:29:43;;;;;;;1.80;0.57;;;2.30;80.70;;;;;;5012597;28;20025;-69
2022/04/15 00:32:09;;;;;;;0.50;0.50;;;2.30;81.00;;;;;;5012437;28;20022;-69
2022/04/15 00:34:35;;;;;;;0.77;0.43;;;2.20;81.20;;;;;;5012503;28;20022;-69
2022/04/15 00:37:01;;;;;;;0.77;0.50;;;2.20;81.40;;;;;;5015804;28;20045;-69
2022/04/15 00:39:27;;;;;;;0.57;0.57;;;2.10;81.90;;;;;;5032053;28;20040;-69
2022/04/15 00:41:52;;;;;;;0.85;0.60;;;2.10;82.20;;;;;;5032331;28;20032;-69
2022/04/15 00:44:18;;;;;;;0.50;0.50;;;2.10;82.60;;;;;;5032000;28;20049;-69
2022/04/15 00:46:44;;;;;;;0.40;0.40;;;2.10;83.00;;;;;;5031947;28;20029;-69
2022/04/15 00:49:09;;;;;;;0.75;0.40;;;2.10;83.60;;;;;;5031839;28;20029;-69
2022/04/15 00:51:36;;;;;;;0.50;0.50;;;2.10;83.90;;;;;;5032124;28;20025;-69
2022/04/15 00:54:03;;;;;;;0.65;0.60;;;2.10;84.70;;;;;;5031542;28;20041;-69
2022/04/15 00:56:35;;;;;;;1.35;0.70;;;2.00;85.30;;;;;;5032046;28;20104;-69
2022/04/15 00:59:02;;;;;;;0.52;0.50;;;1.90;85.80;;;;;;5031899;28;20025;-69
2022/04/15 01:01:28;;;;;;;0.70;0.70;;;1.90;86.50;;;;;;5031708;28;20057;-69
2022/04/15 01:03:55;;;;;;;1.63;0.75;;;1.80;87.10;;;;;;5031807;28;20136;-69
2022/04/15 01:06:25;;;;;;;3.50;0.70;;;1.80;87.60;;;;;;5031786;28;20496;-68
2022/04/15 01:08:55;;;;;;;0.50;0.50;;;1.70;88.60;;;;;;5032168;28;20393;-68
2022/04/15 01:11:24;;;;;;;0.68;0.50;;;1.60;89.70;;;;;;5032014;28;20401;-68
2022/04/15 01:13:51;;;;;;;0.40;0.40;;;1.50;90.30;;;;;;5031738;28;20032;-68
2022/04/15 01:16:18;;;;;;;0.40;0.40;;;1.50;90.60;;;;;;5031842;28;20061;-68
2022/04/15 01:18:43;;;;;;;1.08;0.60;;;1.50;91.10;;;;;;5031935;28;20477;-68
2022/04/15 01:21:11;;;;;;;0.70;0.43;;;1.50;91.30;;;;;;5013792;28;20060;-68
2022/04/15 01:23:40;;;;;;;0.60;0.60;;;1.50;91.60;;;;;;5031569;28;20030;-68
2022/04/15 01:26:06;;;;;;;0.50;0.50;;;1.50;91.60;;;;;;5031640;28;20025;-68
2022/04/15 01:28:33;;;;;;;2.42;0.65;;;1.60;91.70;;;;;;5031601;28;20025;-68
2022/04/15 01:30:59;;;;;;;1.23;0.70;;;1.60;91.80;;;;;;5031813;28;20029;-68
2022/04/15 01:33:24;;;;;;;0.82;0.60;;;1.60;91.90;;;;;;5007077;28;20483;-68
2022/04/15 01:35:50;;;;;;;1.55;0.60;;;1.50;92.20;;;;;;5012099;28;20033;-68
2022/04/15 01:38:17;;;;;;;1.35;0.80;;;1.50;92.40;;;;;;5011260;28;20065;-68
2022/04/15 01:40:44;;;;;;;0.60;0.60;;;1.50;92.70;;;;;;5011880;28;20018;-68
2022/04/15 01:43:10;;;;;;;4.78;0.70;;;1.50;93.10;;;;;;5011558;28;20569;-68
2022/04/15 01:45:36;;;;;;;15.23;0.70;;;1.40;93.40;;;;;;5011796;28;20024;-68
2022/04/15 01:48:02;;;;;;;0.95;0.52;;;1.40;93.70;;;;;;5012031;28;20037;-68
2022/04/15 01:50:28;;;;;;;0.60;0.60;;;1.30;93.90;;;;;;5011661;28;20463;-69
2022/04/15 01:52:55;;;;;;;2.05;0.70;;;1.30;94.20;;;;;;5011725;28;20054;-69
2022/04/15 01:55:21;;;;;;;3.42;0.82;;;1.20;94.50;;;;;;5011766;28;20358;-69
2022/04/15 01:57:47;;;;;;;11.07;1.00;;;1.20;95.00;;;;;;5011755;28;20037;-69
2022/04/15 02:00:13;;;;;;;6.82;0.80;;;1.10;95.10;;;;;;5011564;28;20532;-69
2022/04/15 02:02:39;;;;;;;6.18;1.00;;;1.10;95.40;;;;;;5011535;28;20122;-69
2022/04/15 02:05:05;;;;;;;0.90;0.60;;;1.10;95.70;;;;;;5011627;28;20496;-68
2022/04/15 02:07:31;;;;;;;0.50;0.50;;;1.10;95.80;;;;;;5014096;28;20037;-69
2022/04/15 02:09:56;;;;;;;0.60;0.60;;;1.00;96.20;;;;;;5015092;28;20512;-69
2022/04/15 02:12:22;;;;;;;0.85;0.60;;;1.00;96.60;;;;;;5014813;28;20022;-69
2022/04/15 02:14:48;;;;;;;3.50;0.60;;;1.00;96.60;;;;;;5015265;28;20032;-69
2022/04/15 02:17:14;;;;;;;2.38;0.40;;;1.00;96.80;;;;;;5014979;28;20473;-69
2022/04/15 02:19:39;;;;;;;0.77;0.60;;;0.90;97.10;;;;;;5014963;28;20053;-69
2022/04/15 02:22:05;;;;;;;0.50;0.50;;;0.90;97.40;;;;;;5014775;28;20041;-69
2022/04/15 02:56:00;;;;;;;2.60;0.82;;;0.50;99.90;;;;;;5011905;28;20050;-68
2022/04/15 02:58:26;;;;;;;2.33;0.60;;;0.50;99.90;;;;;;5014180;28;20145;-67
2022/04/15 03:00:51;;;;;;;4.60;0.50;;;0.50;99.90;;;;;;5014323;28;20026;-67
2022/04/15 03:03:17;;;;;;;1.70;0.50;;;0.50;99.90;;;;;;5014106;28;20052;-67
2022/04/15 03:38:22;;;;;;;1.75;0.57;;;0.10;99.90;;;;;;5513330;23;20062;-69
2022/04/15 03:40:48;;;;;;;2.85;0.80;;;0.10;99.90;;;;;;4992326;28;20123;-69
2022/04/15 03:43:14;;;;;;;1.08;0.70;;;0.10;99.90;;;;;;4993614;28;20028;-70
2022/04/15 03:45:39;;;;;;;0.57;0.57;;;0.00;99.90;;;;;;4994070;28;20027;-70
2022/04/15 03:48:05;;;;;;;0.50;0.50;;;0.00;99.90;;;;;;4993508;28;20025;-70
2022/04/15 03:50:31;;;;;;;0.52;0.52;;;0.00;99.90;;;;;;4993899;28;20041;-70
2022/04/15 03:52:56;;;;;;;0.60;0.57;;;0.00;99.90;;;;;;4993379;28;20054;-70
2022/04/15 03:55:24;;;;;;;0.80;0.60;;;-0.10;99.90;;;;;;4993566;28;20030;-70
2022/04/15 03:57:50;;;;;;;0.63;0.60;;;0.00;99.90;;;;;;4993302;28;20031;-70
2022/04/15 04:00:21;;;;;;;1.23;0.60;;;0.00;99.90;;;;;;4993486;28;20034;-71
2022/04/15 04:02:49;;;;;;;0.50;0.50;;;0.00;99.90;;;;;;4993330;28;20026;-71
2022/04/15 04:05:15;;;;;;;3.95;0.60;;;0.10;99.90;;;;;;4993374;28;20022;-71
2022/04/15 04:07:45;;;;;;;1.17;0.60;;;0.10;99.90;;;;;;4993291;28;20026;-70
2022/04/15 04:10:12;;;;;;;1.58;0.70;;;0.10;99.90;;;;;;4993289;28;20019;-69
2022/04/15 04:12:38;;;;;;;0.80;0.70;;;0.20;99.90;;;;;;4993316;28;20022;-71
2022/04/15 04:15:05;;;;;;;0.50;0.50;;;0.20;99.90;;;;;;4993090;28;20493;-70
2022/04/15 04:17:31;;;;;;;1.85;0.77;;;0.20;99.90;;;;;;4993324;28;20042;-71
2022/04/15 04:19:57;;;;;;;1.48;0.70;;;0.20;99.90;;;;;;4993241;28;20030;-70
2022/04/15 04:22:31;;;;;;;0.60;0.60;;;0.20;99.90;;;;;;4993368;28;20033;-70
2022/04/15 04:24:57;;;;;;;0.57;0.57;;;0.20;99.90;;;;;;4992917;28;20022;-70
2022/04/15 04:27:23;;;;;;;1.83;0.70;;;0.30;99.90;;;;;;4991718;28;20026;-70
2022/04/15 04:29:49;;;;;;;0.52;0.52;;;0.40;99.90;;;;;;4992270;28;20049;-71
2022/04/15 04:32:15;;;;;;;0.93;0.50;;;0.70;99.90;;;;;;4993042;28;20058;-68
2022/04/15 04:34:41;;;;;;;0.63;0.60;;;1.10;99.90;;;;;;4992906;28;20027;-66
2022/04/15 04:37:07;;;;;;;0.80;0.60;;;1.50;99.90;;;;;;4992803;28;20036;-67
2022/04/15 04:39:32;;;;;;;1.58;0.50;;;1.90;99.50;;;;;;5011753;28;20421;-68
2022/04/15 04:41:59;;;;;;;5.95;0.63;;;4.00;99.90;;;;;;5012399;28;20080;-69
2022/04/15 04:44:27;;;;;;;5.15;0.60;;;6.50;99.90;;;;;;5012383;28;20030;-68
2022/04/15 04:46:53;;;;;;;1.08;0.50;;;6.80;88.40;;;;;;5012198;28;20077;-67
2022/04/15 04:49:19;;;;;;;3.22;0.75;;;6.20;78.90;;;;;;5009080;28;20053;-70
2022/04/15 04:51:45;;;;;;;3.58;1.50;;;5.70;79.80;;;;;;5010369;28;20073;-68
2022/04/15 04:54:11;;;;;;;0.50;0.50;;;5.50;78.00;;;;;;5011495;28;20042;-69
2022/04/15 04:56:37;;;;;;;5.35;0.60;;;5.50;77.70;;;;;;5008569;28;20042;-67
2022/04/15 04:59:03;;;;;;;4.95;1.60;;;5.50;77.40;;;;;;5010911;28;20138;-68
2022/04/15 05:01:29;;;;;;;1.98;0.70;;;5.60;76.40;;;;;;5011214;28;20022;-68
2022/04/15 05:03:54;;;;;;;3.00;0.60;;;5.80;76.20;;;;;;5010910;28;20026;-72
2022/04/15 05:06:20;;;;;;;0.88;0.50;;;6.00;74.60;;;;;;5011197;28;20026;-72
2022/04/15 05:08:46;;;;;;;6.38;0.68;;;6.20;73.40;;;;;;5010252;28;20468;-81
2022/04/15 05:11:11;;;;;;;3.70;0.70;;;6.30;72.20;;;;;;5009816;28;20058;-80
2022/04/15 05:13:37;;;;;;;5.43;0.50;;;6.50;71.60;;;;;;5011771;28;20018;-79
2022/04/15 05:16:03;;;;;;;4.97;0.50;;;6.60;70.80;;;;;;5003469;28;20409;-78
2022/04/15 05:18:29;;;;;;;6.13;0.50;;;6.80;69.90;;;;;;5001626;28;20160;-78
2022/04/15 05:20:54;;;;;;;0.50;0.50;;;7.00;69.10;;;;;;5002526;28;20473;-78
2022/04/15 05:23:20;;;;;;;1.63;0.47;;;7.20;68.40;;;;;;5012036;28;20377;-78
2022/04/15 05:25:48;;;;;;;3.08;0.95;;;7.50;67.50;;;;;;5012040;28;20026;-85
2022/04/15 05:28:14;;;;;;;4.72;1.98;;;7.70;69.00;;;;;;5012231;28;20049;-75
2022/04/15 05:30:39;;;;;;;4.88;0.70;;;8.00;66.60;;;;;;5010741;28;20022;-74
2022/04/15 05:33:05;;;;;;;4.13;0.82;;;8.40;65.70;;;;;;5004480;28;20133;-83
2022/04/15 05:35:31;;;;;;;3.03;0.80;;;8.50;64.60;;;;;;4992462;28;20029;-78
2022/04/15 05:37:56;;;;;;;23.60;5.10;;;8.90;64.40;;;;;;4991748;28;20536;-78
2022/04/15 05:40:23;;;;;;;0.60;0.60;;;9.10;63.70;;;;;;4990950;28;20030;-75
2022/04/15 05:42:49;;;;;;;3.08;2.78;;;9.30;62.60;;;;;;4998830;28;20108;-74
2022/04/15 05:45:14;;;;;;;7.20;0.60;;;9.40;61.80;;;;;;5015816;28;20109;-74
2022/04/15 05:47:40;;;;;;;3.10;0.70;;;9.60;61.10;;;;;;5015793;28;20025;-75
2022/04/15 05:50:07;;;;;;;1.70;0.70;;;9.70;60.40;;;;;;5015340;28;20022;-75
2022/04/15 05:52:33;;;;;;;1.48;0.35;;;9.80;60.20;;;;;;5015410;28;20032;-75
2022/04/15 05:54:59;;;;;;;0.50;0.50;;;10.00;59.70;;;;;;5015293;28;20037;-75
2022/04/15 05:57:25;;;;;;;1.95;0.40;;;10.20;59.20;;;;;;5008720;28;20030;-73
2022/04/15 05:59:51;;;;;;;3.58;0.50;;;10.40;59.00;;;;;;5014090;28;20022;-70
2022/04/15 06:02:16;;;;;;;0.68;0.50;;;10.60;59.90;;;;;;5013890;28;20057;-73
2022/04/15 06:04:42;;;;;;;2.25;0.47;;;11.70;62.70;;;;;;5015297;28;20022;-75
2022/04/15 06:07:09;;;;;;;1.17;0.40;;;11.70;58.90;;;;;;5014478;28;20065;-74
2022/04/15 06:09:34;;;;;;;1.02;0.45;;;11.40;56.70;;;;;;5010164;28;20026;-72
2022/04/15 06:12:00;;;;;;;0.47;0.40;;;11.10;56.50;;;;;;5013179;28;20018;-71
2022/04/15 06:14:27;;;;;;;2.03;0.50;;;11.10;57.00;;;;;;5012871;28;20025;-77
2022/04/15 06:16:55;;;;;;;1.67;0.50;;;11.10;56.70;;;;;;5010971;28;20038;-80
2022/04/15 06:19:22;;;;;;;0.75;0.30;;;10.90;56.80;;;;;;4994831;28;20035;-80
2022/04/15 06:21:50;;;;;;;0.68;0.43;;;10.90;56.80;;;;;;5005862;28;20037;-75
2022/04/15 06:24:16;;;;;;;0.90;0.40;;;10.60;56.50;;;;;;5006951;28;20026;-72
2022/04/15 06:26:41;;;;;;;0.55;0.47;;;10.50;56.90;;;;;;5006869;28;20018;-67
2022/04/15 06:29:07;;;;;;;16.90;1.10;;;10.40;56.80;;;;;;5008464;28;20030;-69
2022/04/15 06:31:33;;;;;;;1.55;0.40;;;10.60;56.90;;;;;;5012622;28;20373;-73
2022/04/15 06:33:58;;;;;;;0.77;0.38;;;10.60;55.60;;;;;;5009810;28;20108;-74
2022/04/15 06:36:24;;;;;;;0.47;0.40;;;10.40;56.20;;;;;;5011351;28;20619;-70
2022/04/15 06:38:50;;;;;;;0.30;0.30;;;10.30;55.60;;;;;;5008252;28;20110;-74
2022/04/15 06:41:16;;;;;;;1.17;0.30;;;10.30;56.60;;;;;;5009786;28;20035;-75
2022/04/15 06:43:41;;;;;;;1.23;0.85;;;10.10;55.90;;;;;;5010945;28;20057;-74
2022/04/15 06:46:07;;;;;;;0.30;0.30;;;10.00;56.30;;;;;;5012885;28;20037;-73
2022/04/15 06:48:33;;;;;;;7.50;0.68;;;10.00;56.50;;;;;;5013140;28;20029;-72
2022/04/15 06:50:58;;;;;;;3.40;0.40;;;10.10;56.90;;;;;;5001164;28;20080;-72
2022/04/15 06:53:24;;;;;;;0.45;0.40;;;10.10;56.40;;;;;;5013708;28;20026;-71
2022/04/15 06:55:53;;;;;;;0.57;0.30;;;10.00;56.50;;;;;;5014268;28;20022;-71
2022/04/15 06:58:19;;;;;;;0.50;0.35;;;9.90;56.00;;;;;;5010518;28;20472;-72
2022/04/15 07:00:46;;;;;;;0.35;0.30;;;9.70;56.40;;;;;;5013081;28;20088;-72
2022/04/15 07:03:13;;;;;;;1.50;0.40;;;9.70;56.90;;;;;;5014266;28;20037;-72
2022/04/15 07:05:39;;;;;;;0.82;0.30;;;9.60;56.70;;;;;;5012848;28;20037;-71
2022/04/15 07:08:08;;;;;;;2.72;0.40;;;9.50;57.00;;;;;;5013207;28;20444;-72
2022/04/15 07:10:35;;;;;;;3.33;0.47;;;9.60;57.40;;;;;;5012721;28;20489;-73
2022/04/15 07:13:01;;;;;;;0.30;0.30;;;9.50;56.90;;;;;;5012709;28;20030;-73
2022/04/15 07:15:27;;;;;;;1.00;0.38;;;9.20;56.90;;;;;;5012804;28;20389;-74
2022/04/15 07:17:52;;;;;;;1.98;0.40;;;9.00;57.60;;;;;;5012279;28;20029;-86
2022/04/15 07:20:18;;;;;;;16.13;2.38;;;9.00;58.90;;;;;;5013390;28;20180;-74
2022/04/15 07:22:44;;;;;;;0.85;0.40;;;9.10;60.30;;;;;;5012855;28;20034;-74
2022/04/15 07:25:09;;;;;;;0.85;0.35;;;9.20;58.50;;;;;;5013183;28;20045;-72
2022/04/15 07:27:35;;;;;;;3.22;0.65;;;9.00;57.60;;;;;;5013013;28;20026;-72
2022/04/15 07:30:01;;;;;;;0.47;0.43;;;8.70;58.20;;;;;;5013613;28;20014;-72
2022/04/15 07:32:29;;;;;;;0.85;0.30;;;8.70;59.00;;;;;;5013769;28;20105;-76
2022/04/15 07:34:55;;;;;;;5.00;1.13;;;8.60;59.00;;;;;;5013731;28;20038;-81
2022/04/15 07:37:22;;;;;;;2.92;0.50;;;8.70;67.10;;;;;;5013586;28;20381;-74
2022/04/15 07:39:48;;;;;;;4.47;0.47;;;9.10;64.70;;;;;;5013505;28;20104;-75
2022/04/15 07:42:14;;;;;;;0.85;0.30;;;10.00;70.10;;;;;;5013795;28;20036;-75
2022/04/15 07:44:44;;;;;;;1.35;0.40;;;9.90;61.50;;;;;;5013706;28;20518;-75
2022/04/15 07:47:10;;;;;;;;;;;9.40;60.70;;;;;;5013799;28;20022;-75
2022/04/15 07:49:36;;;;;;;0.30;0.30;;;9.10;60.20;;;;;;5012086;28;20418;-75
2022/04/15 07:52:04;;;;;;;0.30;0.30;;;8.80;60.60;;;;;;5013436;28;20088;-75
2022/04/15 07:54:31;;;;;;;0.88;0.40;;;8.50;60.70;;;;;;5013129;28;20117;-75
2022/04/15 07:56:58;;;;;;;7.40;0.47;;;8.40;60.90;;;;;;5012817;28;20049;-75
2022/04/15 07:59:23;;;;;;;1.85;0.45;;;8.30;61.00;;;;;;5013078;28;20022;-75
2022/04/15 08:01:49;;;;;;;0.45;0.40;;;8.30;61.10;;;;;;5013141;28;20053;-74
2022/04/15 08:04:15;;;;;;;3.13;0.50;;;8.20;61.20;;;;;;5012347;28;20025;-75
2022/04/15 08:06:40;;;;;;;0.40;0.40;;;8.20;61.50;;;;;;5013108;28;20022;-74
2022/04/15 08:09:07;;;;;;;1.00;0.40;;;8.20;61.50;;;;;;5012781;28;20053;-75
2022/04/15 08:11:33;;;;;;;1.38;0.40;;;8.20;61.20;;;;;;5013091;28;20026;-75
2022/04/15 08:13:58;;;;;;;0.30;0.30;;;8.10;62.10;;;;;;5012788;28;20045;-75
2022/04/15 08:16:25;;;;;;;0.30;0.30;;;7.90;62.30;;;;;;5012946;28;20487;-75
2022/04/15 08:18:51;;;;;;;0.40;0.30;;;7.80;62.00;;;;;;5012884;28;20034;-75
2022/04/15 08:21:17;;;;;;;11.70;1.10;;;7.80;61.90;;;;;;5012978;28;20026;-75
2022/04/15 08:23:43;;;;;;;1.35;0.50;;;7.80;62.10;;;;;;5012759;28;20026;-75
2022/04/15 08:26:10;;;;;;;1.33;1.02;;;7.90;62.30;;;;;;5012587;28;20481;-75
2022/04/15 08:28:36;;;;;;;0.30;0.30;;;7.80;61.30;;;;;;5012713;28;20017;-75
2022/04/15 08:31:02;;;;;;;0.32;0.32;;;7.70;61.30;;;;;;5012459;28;20101;-75
2022/04/15 08:33:27;;;;;;;0.47;0.40;;;7.70;61.00;;;;;;5012639;28;20030;-74
2022/04/15 08:35:53;;;;;;;0.50;0.40;;;7.60;61.40;;;;;;5012415;28;20036;-74
2022/04/15 08:38:19;;;;;;;10.13;0.68;;;7.60;62.30;;;;;;5012051;28;20069;-74
2022/04/15 08:40:50;;;;;;;11.32;0.70;;;7.60;62.20;;;;;;5012487;28;20025;-75
2022/04/15 08:43:16;;;;;;;2.78;0.55;;;7.70;62.70;;;;;;5012327;28;20041;-74
2022/04/15 08:45:42;;;;;;;0.43;0.43;;;7.70;61.40;;;;;;5012395;28;20022;-74
2022/04/15 08:48:08;;;;;;;0.40;0.40;;;7.70;62.20;;;;;;5012520;28;20029;-75
2022/04/15 08:50:35;;;;;;;3.70;0.63;;;7.70;62.00;;;;;;5012340;28;20058;-74
2022/04/15 08:53:03;;;;;;;4.75;0.40;;;7.70;60.50;;;;;;5012289;28;20030;-75
2022/04/15 08:55:32;;;;;;;0.40;0.40;;;7.70;60.10;;;;;;5012575;28;20101;-74
2022/04/15 08:57:58;;;;;;;7.32;0.93;;;7.70;60.70;;;;;;5010859;28;20058;-74
2022/04/15 09:00:25;;;;;;;20.70;1.30;;;7.60;60.60;;;;;;5012198;28;20535;-74
2022/04/15 09:02:53;;;;;;;2.17;0.50;;;7.60;60.10;;;;;;5012416;28;20034;-74
2022/04/15 09:05:21;;;;;;;0.35;0.35;;;7.70;60.80;;;;;;5012198;28;20022;-75
2022/04/15 09:07:46;;;;;;;0.63;0.40;;;7.70;60.30;;;;;;5012274;28;20366;-74
2022/04/15 09:10:14;;;;;;;2.75;0.60;;;7.70;60.70;;;;;;5012073;28;20124;-75
2022/04/15 09:12:41;;;;;;;0.30;0.30;;;7.70;59.80;;;;;;5012237;28;20026;-74
2022/04/15 09:15:07;;;;;;;0.40;0.40;;;7.60;59.80;;;;;;5012399;28;20026;-74
2022/04/15 09:17:36;;;;;;;14.20;0.60;;;7.60;59.60;;;;;;5016382;28;20048;-74
2022/04/15 09:20:05;;;;;;;1.58;0.70;;;7.50;59.80;;;;;;5015973;28;20477;-74
2022/04/15 09:22:30;;;;;;;0.30;0.30;;;7.40;59.80;;;;;;5016270;28;20120;-74
2022/04/15 09:24:56;;;;;;;1.50;0.30;;;7.50;60.10;;;;;;5016000;28;20057;-74
2022/04/15 09:27:25;;;;;;;0.40;0.40;;;7.40;59.20;;;;;;5016219;28;20037;-74
2022/04/15 09:29:54;;;;;;;1.25;0.55;;;7.30;59.30;;;;;;5016124;28;20088;-74
2022/04/15 09:32:22;;;;;;;0.35;0.35;;;7.30;60.10;;;;;;5015797;28;20034;-74
2022/04/15 09:35:03;;;;;;;17.50;1.35;;;7.40;59.90;;;;;;5015807;28;20152;-74
2022/04/15 09:37:51;;;;;;;2.17;0.40;;;7.40;60.00;;;;;;5015435;28;20033;-74
2022/04/15 09:40:20;;;;;;;0.63;0.40;;;7.40;59.50;;;;;;5015513;28;20040;-74
2022/04/15 09:42:51;;;;;;;3.25;1.27;;;7.40;59.00;;;;;;5015763;28;20049;-75
2022/04/15 09:45:37;;;;;;;0.45;0.40;;;7.50;59.20;;;;;;5015582;28;20106;-74
2022/04/15 09:48:08;;;;;;;0.40;0.40;;;7.50;59.90;;;;;;5015500;28;20071;-75
2022/04/15 09:50:37;;;;;;;1.92;0.40;;;7.60;59.40;;;;;;5015681;28;20030;-74
2022/04/15 09:53:21;;;;;;;0.50;0.43;;;7.60;58.60;;;;;;5015248;28;20108;-74
2022/04/15 09:55:50;;;;;;;11.45;0.73;;;7.60;59.50;;;;;;5015660;28;20025;-74
2022/04/15 09:58:21;;;;;;;1.55;0.40;;;7.70;60.10;;;;;;5015069;28;20041;-74
2022/04/15 10:00:49;;;;;;;1.60;0.50;;;7.70;59.30;;;;;;5015506;28;20096;-74
2022/04/15 10:03:20;;;;;;;2.92;0.50;;;7.60;57.90;;;;;;5015156;28;20431;-74
2022/04/15 10:05:48;;;;;;;7.13;1.08;;;7.50;58.20;;;;;;5015169;28;20026;-74
2022/04/15 10:08:15;;;;;;;2.58;0.63;;;7.60;58.40;;;;;;5015142;28;20117;-75
2022/04/15 10:10:41;;;;;;;0.35;0.35;;;7.50;57.80;;;;;;5015138;28;20484;-75
2022/04/15 10:13:07;;;;;;;1.13;0.50;;;7.50;57.50;;;;;;5015034;28;20512;-74
2022/04/15 10:15:36;;;;;;;5.10;0.50;;;7.50;56.30;;;;;;5015068;28;20053;-74
2022/04/15 10:18:03;;;;;;;6.35;1.13;;;7.50;56.40;;;;;;5014772;28;20117;-74
2022/04/15 10:20:31;;;;;;;2.95;0.95;;;7.40;57.20;;;;;;5015009;28;20029;-74
2022/04/15 10:23:02;;;;;;;4.95;0.50;;;7.40;59.80;;;;;;5015020;28;20049;-74
2022/04/15 10:25:29;;;;;;;4.25;0.60;;;7.40;61.30;;;;;;5015305;28;20033;-75
2022/04/15 10:28:10;;;;;;;10.02;0.80;;;7.40;60.70;;;;;;5013935;28;20022;-74
2022/04/15 10:30:36;;;;;;;1.77;0.50;;;7.40;60.50;;;;;;5014923;28;20049;-74
2022/04/15 10:33:02;;;;;;;9.00;1.25;;;7.40;60.90;;;;;;5014517;28;20030;-69
2022/04/15 10:35:32;;;;;;;17.20;1.05;;;7.90;69.60;;;;;;5014929;28;20026;-70
2022/04/15 10:38:02;;;;;;;1.15;0.60;;;8.00;61.40;;;;;;5014278;28;20046;-70
2022/04/15 10:40:35;;;;;;;3.28;0.47;;;7.90;59.20;;;;;;5014898;28;20061;-72
2022/04/15 10:43:27;;;;;;;2.08;0.47;;;7.70;59.80;;;;;;5019785;28;20034;-74
2022/04/15 10:46:14;;;;;;;4.38;0.60;;;7.60;59.80;;;;;;5012360;28;20057;-73
2022/04/15 10:48:41;;;;;;;2.30;0.60;;;7.60;60.10;;;;;;5013760;28;20022;-74
2022/04/15 10:51:33;;;;;;;3.83;0.50;;;7.60;59.60;;;;;;5013828;28;20022;-68
2022/04/15 10:54:35;;;;;;;2.90;0.40;;;7.50;59.20;;;;;;5013370;28;20026;-69
2022/04/15 10:57:08;;;;;;;0.55;0.55;;;7.60;59.30;;;;;;5013396;28;20122;-70
2022/04/15 11:02:21;;;;;;;5.50;0.55;;;7.50;59.90;;;;;;5014344;28;20025;-69
2022/04/15 11:04:51;;;;;;;0.90;0.40;;;7.50;59.10;;;;;;5014097;28;20026;-69
2022/04/15 11:07:28;;;;;;;0.98;0.57;;;7.50;59.10;;;;;;5014295;28;20101;-69
2022/04/15 11:09:57;;;;;;;3.83;0.47;;;7.50;58.90;;;;;;5014176;28;20029;-69
2022/04/15 11:12:35;;;;;;;1.88;0.60;;;7.50;59.90;;;;;;5014116;28;20034;-68
2022/04/15 11:15:05;;;;;;;2.88;1.10;;;7.50;59.20;;;;;;5014137;28;20049;-69
2022/04/15 11:17:38;;;;;;;2.47;0.50;;;7.60;59.30;;;;;;5014123;28;20029;-69
2022/04/15 11:20:07;;;;;;;2.67;0.55;;;7.60;59.60;;;;;;5013833;28;20120;-69
2022/04/15 11:22:44;;;;;;;3.75;0.50;;;7.60;59.10;;;;;;5014120;28;20057;-69
2022/04/15 11:25:12;;;;;;;1.85;0.60;;;7.60;59.40;;;;;;5013634;28;20080;-69
2022/04/15 11:27:40;;;;;;;6.35;0.60;;;7.60;58.60;;;;;;5013832;28;20025;-68
2022/04/15 11:30:17;;;;;;;5.47;0.70;;;7.50;58.50;;;;;;5013484;28;20030;-69
2022/04/15 11:32:54;;;;;;;6.43;0.65;;;7.50;59.00;;;;;;5013722;28;20022;-69
2022/04/15 11:35:46;;;;;;;1.80;0.50;;;7.60;58.90;;;;;;5013388;28;20025;-69
2022/04/15 11:38:13;;;;;;;3.97;0.75;;;7.60;58.70;;;;;;5010956;28;20106;-72
2022/04/15 11:40:43;;;;;;;0.57;0.32;;;7.60;59.10;;;;;;5013036;28;20072;-73
2022/04/15 11:43:10;;;;;;;6.85;1.00;;;7.60;57.90;;;;;;5013344;28;20030;-74
2022/04/15 11:45:41;;;;;;;0.75;0.50;;;8.90;90.30;;;;;;5013440;28;20053;-74
2022/04/15 11:48:20;;;;;;;0.93;0.43;;;9.10;60.40;;;;;;5013405;28;20030;-74
2022/04/15 11:50:48;;;;;;;1.23;0.60;;;8.70;56.90;;;;;;5013298;28;20481;-74
2022/04/15 11:53:15;;;;;;;5.90;0.70;;;8.40;56.90;;;;;;5013224;28;20469;-74
2022/04/15 11:55:55;;;;;;;0.75;0.50;;;8.10;57.20;;;;;;5012993;28;20055;-74
2022/04/15 11:58:22;;;;;;;3.47;0.50;;;8.00;57.30;;;;;;5013035;28;20041;-74
2022/04/15 12:00:56;;;;;;;2.85;0.43;;;7.80;56.70;;;;;;5011654;28;20060;-75
2022/04/15 12:03:22;;;;;;;5.65;1.00;;;7.80;57.00;;;;;;5011388;28;20030;-74
2022/04/15 12:05:49;;;;;;;2.25;0.50;;;7.70;57.20;;;;;;5012560;28;20190;-73
2022/04/15 12:08:16;;;;;;;4.28;0.60;;;8.00;59.70;;;;;;5012444;28;20022;-73
2022/04/15 12:10:44;;;;;;;4.70;0.88;;;7.90;57.10;;;;;;5012550;28;20030;-76
2022/04/15 12:13:10;;;;;;;0.85;0.40;;;7.90;58.20;;;;;;5012322;28;20119;-75
2022/04/15 12:15:37;;;;;;;7.85;0.80;;;7.90;56.40;;;;;;5012450;28;20026;-76
2022/04/15 12:18:04;;;;;;;2.78;0.50;;;7.80;58.00;;;;;;5012591;28;20045;-74
2022/04/15 12:20:32;;;;;;;1.10;0.50;;;7.80;56.40;;;;;;5014327;28;20037;-75
2022/04/15 12:23:00;;;;;;;5.75;0.60;;;7.80;55.50;;;;;;5012848;28;20026;-75
2022/04/15 12:25:26;;;;;;;0.40;0.40;;;7.70;55.10;;;;;;5012549;28;20022;-75
2022/04/15 12:27:55;;;;;;;8.50;0.60;;;7.70;55.90;;;;;;5012680;28;20096;-75
2022/04/15 12:30:39;;;;;;;0.43;0.43;;;7.80;55.70;;;;;;5012407;28;20026;-74
2022/04/15 12:33:08;;;;;;;2.33;0.40;;;7.80;54.80;;;;;;5012647;28;20076;-74
2022/04/15 12:35:35;;;;;;;67.43;4.20;;;7.80;54.30;;;;;;5012732;28;20117;-74
2022/04/15 12:38:01;;;;;;;5.28;0.80;;;7.80;55.00;;;;;;5010647;28;20557;-74
2022/04/15 12:40:32;;;;;;;7.45;0.70;;;7.80;55.20;;;;;;5012185;28;20119;-75
2022/04/15 12:43:12;;;;;;;1.67;0.52;;;7.80;54.60;;;;;;5012619;28;20390;-72
2022/04/15 12:45:53;;;;;;;4.68;0.60;;;7.90;55.60;;;;;;5012639;28;20030;-72
2022/04/15 12:48:19;;;;;;;5.00;0.60;;;8.00;56.30;;;;;;5012051;28;20040;-73
2022/04/15 12:50:46;;;;;;;2.05;0.50;;;8.00;54.40;;;;;;5011823;28;20029;-72
2022/04/15 12:53:15;;;;;;;5.38;0.50;;;7.90;54.10;;;;;;5012430;28;20401;-72
2022/04/15 12:55:42;;;;;;;7.30;0.70;;;7.90;55.40;;;;;;5012412;28;20018;-72
2022/04/15 12:58:34;;;;;;;14.48;1.60;;;8.00;56.50;;;;;;5012136;28;20100;-72
2022/04/15 13:01:00;;;;;;;5.57;1.60;;;8.00;56.90;;;;;;5010155;28;20038;-72
2022/04/15 13:03:31;;;;;;;2.70;0.68;;;8.10;58.10;;;;;;5012361;28;20030;-77
2022/04/15 13:05:57;;;;;;;10.02;1.05;;;8.20;57.60;;;;;;5012225;28;20491;-77
2022/04/15 13:08:24;;;;;;;11.90;1.10;;;8.10;57.50;;;;;;5012104;28;20038;-77
2022/04/15 13:10:51;;;;;;;5.32;1.20;;;8.10;57.50;;;;;;5012196;28;20544;-77
2022/04/15 13:13:20;;;;;;;2.28;1.02;;;8.10;57.80;;;;;;5012079;28;20085;-77
2022/04/15 13:15:49;;;;;;;10.23;1.05;;;8.10;57.50;;;;;;5011982;28;20022;-74
2022/04/15 13:18:16;;;;;;;4.40;0.80;;;8.10;57.70;;;;;;5011961;28;20038;-75
2022/04/15 13:20:44;;;;;;;4.35;0.65;;;8.10;56.60;;;;;;5012291;28;20105;-70
2022/04/15 13:23:10;;;;;;;8.00;0.80;;;8.10;56.50;;;;;;5011895;28;20485;-70
2022/04/15 13:25:36;;;;;;;10.20;1.15;;;8.00;56.60;;;;;;5011511;28;20095;-70
2022/04/15 13:28:02;;;;;;;2.88;0.50;;;8.10;56.70;;;;;;5011006;28;20595;-70
2022/04/15 13:30:28;;;;;;;20.75;1.60;;;8.10;56.50;;;;;;5010969;28;20607;-70
2022/04/15 13:32:55;;;;;;;4.03;0.70;;;8.20;56.70;;;;;;5011641;28;20022;-70
2022/04/15 13:35:21;;;;;;;4.85;0.70;;;8.20;56.70;;;;;;5011736;28;20033;-70
2022/04/15 13:37:47;;;;;;;3.05;0.63;;;8.20;56.70;;;;;;5010585;28;20033;-71
2022/04/15 13:40:13;;;;;;;3.95;0.93;;;8.20;55.70;;;;;;5011607;28;20041;-70
2022/04/15 13:42:39;;;;;;;8.45;0.85;;;8.20;56.50;;;;;;5011924;28;20061;-70
2022/04/15 13:45:05;;;;;;;4.10;0.63;;;8.30;57.20;;;;;;5011862;28;20025;-71
2022/04/15 13:47:31;;;;;;;2.83;0.77;;;8.30;55.90;;;;;;5011662;28;20033;-70
2022/04/15 13:49:57;;;;;;;9.88;0.73;;;8.30;55.20;;;;;;5011943;28;20021;-71
2022/04/15 13:57:52;;;;;;;5.47;0.70;;;8.20;53.40;;;;;;5011657;28;20156;-70
2022/04/15 14:00:18;;;;;;;1.73;0.70;;;8.20;53.00;;;;;;5008096;28;20030;-70
2022/04/15 14:02:47;;;;;;;10.38;2.13;;;8.20;55.30;;;;;;4993274;28;20026;-70
2022/04/15 14:05:13;;;;;;;1.25;0.60;;;8.30;55.90;;;;;;4995473;28;20041;-74
2022/04/15 14:07:39;;;;;;;6.97;0.60;;;8.30;56.00;;;;;;4995609;28;20033;-74
2022/04/15 14:10:05;;;;;;;17.00;1.30;;;8.40;55.30;;;;;;4995386;28;20106;-74